»·PEaware :: AAL169 KSFO-KLAX

AAL169 :: KSFO-KLAX

FLIGHT INFORMATION

Flight Status: Arrived
Operator:
American Airlines
More flights by this operator :: More flights under this callsign
Pilot: Dave P. (45)
Aircraft: BOEING 737-800
(B738)
More flights by this aircraft type
Origin: KSFO San Francisco Intl
United States
Destination: KLAX Los Angeles Intl
United States
More flights between these airports :: More routes between these airports
Route: WESLA5 SUSEY EBAYE BURGL IRNMN2
File this flight plan on PilotEdge
Remarks:
Altitude:
(Current/Filed)
33,000ft
Speed:
(Current/Filed)
453kts
Departed: 29-Sep-22 05:21 PM
Arrived: 29-Sep-22 06:17 PM
Distance/Time
Traveled:
293nm/0:56
Distance/Time
To Go:
Arrived

Flight Plot

Page will automatically refresh every two minutes.

Flight plan parsing failed; only flown route is shown


Map Options




Map Legend


Flown Route
Filed Route
Departure Airport
Arrival Airport
Navaid (VOR, NDB)
Fix

Horizontal Profiles

Position Reports

Time Latitude Longitude Heading Altitude Ground
Speed
29-Sep-22 16:47 37.611078 -122.386728 116 16ft 0kts
29-Sep-22 16:48 37.611078 -122.386728 116 16ft 0kts
29-Sep-22 16:49 37.611078 -122.386728 116 16ft 0kts
29-Sep-22 16:50 37.611078 -122.386728 116 16ft 0kts
29-Sep-22 16:51 37.611078 -122.386728 116 16ft 0kts
29-Sep-22 16:52 37.611078 -122.386728 116 16ft 0kts
29-Sep-22 16:53 37.611078 -122.386728 116 16ft 0kts
29-Sep-22 16:54 37.611078 -122.386728 116 16ft 0kts
29-Sep-22 16:54 37.611078 -122.386728 116 16ft 0kts
29-Sep-22 16:55 37.611078 -122.386728 116 16ft 0kts
29-Sep-22 16:57 37.611078 -122.386728 116 16ft 0kts
29-Sep-22 16:58 37.611078 -122.386728 116 16ft 0kts
29-Sep-22 16:58 37.611078 -122.386728 116 16ft 0kts
29-Sep-22 16:59 37.611078 -122.386728 116 16ft 0kts
29-Sep-22 17:00 37.611078 -122.386728 116 16ft 0kts
29-Sep-22 17:01 37.611078 -122.386728 116 16ft 0kts
29-Sep-22 17:03 37.611078 -122.386728 116 16ft 0kts
29-Sep-22 17:03 37.611078 -122.386728 116 16ft 0kts
29-Sep-22 17:04 37.611078 -122.386728 116 16ft 0kts
29-Sep-22 17:05 37.611142 -122.386893 116 17ft 2kts
29-Sep-22 17:06 37.611460 -122.387254 198 19ft 0kts
29-Sep-22 17:07 37.611460 -122.387254 198 19ft 0kts
29-Sep-22 17:08 37.611460 -122.387254 198 19ft 0kts
29-Sep-22 17:09 37.610947 -122.388157 208 17ft 8kts
29-Sep-22 17:10 37.610858 -122.388218 208 16ft 0kts
29-Sep-22 17:11 37.610395 -122.388524 196 16ft 2kts
29-Sep-22 17:12 37.608882 -122.385335 75 17ft 10kts
29-Sep-22 17:13 37.611781 -122.382863 27 16ft 14kts
29-Sep-22 17:14 37.615152 -122.380631 27 13ft 16kts
29-Sep-22 17:15 37.617835 -122.377179 110 16ft 14kts
29-Sep-22 17:16 37.615756 -122.371692 117 22ft 19kts
29-Sep-22 17:17 37.612891 -122.365975 117 15ft 22kts
29-Sep-22 17:18 37.610526 -122.360195 104 20ft 12kts
29-Sep-22 17:19 37.611121 -122.358951 26 20ft 4kts
29-Sep-22 17:20 37.612821 -122.361086 298 16ft 51kts
29-Sep-22 17:21 37.631364 -122.405694 298 1658ft 178kts
29-Sep-22 17:22 37.660957 -122.472464 300 3506ft 239kts
29-Sep-22 17:23 37.641513 -122.546249 196 6088ft 281kts
29-Sep-22 17:24 37.567580 -122.517580 156 9032ft 288kts
29-Sep-22 17:25 37.489955 -122.473243 144 10723ft 340kts
29-Sep-22 17:26 37.421092 -122.382349 131 12792ft 366kts
29-Sep-22 17:27 37.351205 -122.286324 132 15220ft 380kts
29-Sep-22 17:28 37.277014 -122.185714 132 17241ft 403kts
29-Sep-22 17:29 37.199251 -122.080718 132 19039ft 422kts
29-Sep-22 17:30 37.118569 -121.972150 132 20302ft 427kts
29-Sep-22 17:31 37.035780 -121.861149 132 22048ft 443kts
29-Sep-22 17:32 36.950077 -121.746632 133 23705ft 457kts
29-Sep-22 17:33 36.862276 -121.629729 133 25214ft 465kts
29-Sep-22 17:34 36.773081 -121.511408 133 26702ft 473kts
29-Sep-22 17:35 36.681967 -121.390950 133 28099ft 481kts
29-Sep-22 17:36 36.589288 -121.268894 134 29381ft 488kts
29-Sep-22 17:37 36.496097 -121.146590 134 30962ft 484kts
29-Sep-22 17:38 36.404395 -121.024825 130 32407ft 480kts
29-Sep-22 17:39 36.317770 -120.898833 130 33004ft 483kts
29-Sep-22 17:40 36.230515 -120.773594 130 33000ft 478kts
29-Sep-22 17:41 36.143226 -120.649144 130 32994ft 478kts
29-Sep-22 17:42 36.055964 -120.525148 130 32984ft 477kts
29-Sep-22 17:43 35.968697 -120.401589 130 32983ft 476kts
29-Sep-22 17:44 35.881548 -120.279113 134 32974ft 476kts
29-Sep-22 17:45 35.772500 -120.187663 149 32972ft 475kts
29-Sep-22 17:46 35.659653 -120.102947 148 32974ft 474kts
29-Sep-22 17:47 35.547080 -120.018079 148 32968ft 474kts
29-Sep-22 17:48 35.434615 -119.933462 148 32967ft 474kts
29-Sep-22 17:49 35.322567 -119.849457 148 32977ft 474kts
29-Sep-22 17:50 35.215467 -119.757381 141 31538ft 463kts
29-Sep-22 17:51 35.115092 -119.661893 142 29759ft 451kts
29-Sep-22 17:52 35.016708 -119.570439 142 27913ft 437kts
29-Sep-22 17:53 34.921213 -119.481856 142 26174ft 426kts
29-Sep-22 17:54 34.826750 -119.397091 143 24447ft 418kts
29-Sep-22 17:55 34.733689 -119.314127 143 22669ft 412kts
29-Sep-22 17:56 34.641770 -119.234000 144 20974ft 401kts
29-Sep-22 17:57 34.552122 -119.156545 143 19335ft 390kts
29-Sep-22 17:58 34.465600 -119.079831 143 17636ft 382kts
29-Sep-22 17:59 34.380382 -119.005593 144 16122ft 368kts
29-Sep-22 18:00 34.299276 -118.933655 143 14759ft 356kts
29-Sep-22 18:01 34.221201 -118.862379 143 13323ft 349kts
29-Sep-22 18:02 34.147707 -118.793001 138 12587ft 320kts
29-Sep-22 18:03 34.083203 -118.721791 139 11453ft 311kts
29-Sep-22 18:04 34.028001 -118.647232 101 10506ft 300kts
29-Sep-22 18:05 34.018754 -118.548415 97 9511ft 290kts
29-Sep-22 18:06 34.010567 -118.456509 88 9102ft 259kts
29-Sep-22 18:07 34.024519 -118.373550 78 7716ft 252kts
29-Sep-22 18:08 34.034228 -118.290534 83 6404ft 248kts
29-Sep-22 18:09 34.042794 -118.208926 83 5145ft 241kts
29-Sep-22 18:10 34.005735 -118.157685 161 4211ft 209kts
29-Sep-22 18:11 33.967688 -118.175992 279 3537ft 180kts
29-Sep-22 18:12 33.968769 -118.240241 264 2698ft 191kts
29-Sep-22 18:13 33.962893 -118.297316 263 1819ft 163kts
29-Sep-22 18:14 33.957404 -118.350465 261 995ft 152kts
29-Sep-22 18:15 33.952304 -118.399830 262 192ft 145kts
29-Sep-22 18:16 33.949277 -118.425640 240 122ft 21kts
29-Sep-22 18:17 33.948695 -118.426571 231 121ft 2kts
29-Sep-22 18:18 33.947815 -118.427465 210 123ft 7kts
29-Sep-22 18:19 33.946436 -118.426179 82 124ft 9kts
29-Sep-22 18:20 33.946993 -118.420760 82 122ft 22kts
29-Sep-22 18:21 33.947847 -118.413668 73 124ft 20kts
29-Sep-22 18:22 33.947608 -118.408835 176 122ft 10kts
29-Sep-22 18:23 33.946372 -118.408384 85 122ft 0kts
29-Sep-22 18:24 33.946372 -118.408384 85 122ft 0kts
29-Sep-22 18:25 33.946372 -118.408384 85 124ft 0kts
29-Sep-22 18:26 33.946372 -118.408384 85 124ft 0kts
29-Sep-22 18:27 33.946372 -118.408384 85 124ft 0kts

Navigation Log

Ident Type
Flight plan parsing failed, navigation log unavailable